Terminal Aerodrome Forecast
Issued by NWS

Current Version | Previous Version | Graphics & Text | Print | Product List | Glossary On
Versions: 1 2 3 4 5 6 7 8 9 10 11 12 13 14 15 16 17 18 19 20 21 22 23 24 25
193
FTUS41 KRLX 251141
TAFCKB
TAF
KCKB 251141Z 2512/2612 19005KT 6SM -RA BR OVC003
     FM251400 21005KT P6SM OVC020
     FM252100 22007KT P6SM SHRA OVC020
     FM260500 26009KT P6SM OVC001=

USA.gov is the U.S. government's official web portal to all federal, state and local government web resources and services.